Time;durP1;ratioP1;P1;durP2;ratioP2;P2;SDS_P1;SDS_P2;PMS_P1;PMS_P2;Temp;Humidity;BMP_temperature;BMP_pressure;BME280_temperature;BME280_humidity;BME280_pressure;Samples;Min_cycle;Max_cycle;Signal;HPM_P1;HPM_P2
2023/04/11 00:00:34;;;;;;;2.83;1.70;;;;;;;11.71;69.89;98983.38;4840903;29;20284;-84
2023/04/11 00:03:10;;;;;;;;;;;;;;;;;;;;;
2023/04/11 00:05:41;;;;;;;5.75;2.20;;;;;;;11.67;70.04;98993.28;4911568;29;20056;-84
2023/04/11 00:08:11;;;;;;;1.60;1.50;;;;;;;11.67;70.08;98982.72;4911624;29;20063;-84
2023/04/11 00:11:01;;;;;;;;;;;;;;;;;;;;;
2023/04/11 00:13:57;;;;;;;4.45;1.80;;;;;;;11.68;70.00;98957.22;4965984;28;20050;-84
2023/04/11 00:16:25;;;;;;;4.57;1.92;;;;;;;11.67;70.01;98968.72;4971687;28;20398;-84
2023/04/11 00:18:52;;;;;;;3.50;2.17;;;;;;;11.64;70.09;98972.44;4970604;28;20057;-84
2023/04/11 00:21:18;;;;;;;3.72;1.77;;;;;;;11.65;70.22;98968.00;4972095;28;20063;-83
2023/04/11 00:23:45;;;;;;;5.75;1.67;;;;;;;11.64;70.42;98969.81;4971746;28;20077;-83
2023/04/11 00:26:11;;;;;;;5.47;1.95;;;;;;;11.64;70.31;98958.41;4970964;28;20484;-83
2023/04/11 00:28:40;;;;;;;4.63;2.03;;;;;;;11.64;70.47;98966.31;4971296;28;20057;-84
2023/04/11 00:31:22;;;;;;;2.42;1.70;;;;;;;11.65;70.42;98962.72;4971591;28;20055;-84
2023/04/11 00:33:50;;;;;;;4.22;1.75;;;;;;;11.66;70.36;98956.50;4971564;28;20066;-84
2023/04/11 00:36:17;;;;;;;5.05;2.33;;;;;;;11.64;70.47;98955.78;4971111;28;20058;-84
2023/04/11 00:38:45;;;;;;;5.93;2.08;;;;;;;11.62;70.59;98962.97;4971301;28;20066;-84
2023/04/11 00:41:11;;;;;;;6.22;2.55;;;;;;;11.60;70.66;98960.44;4971316;28;20055;-84
2023/04/11 00:43:38;;;;;;;4.95;2.45;;;;;;;11.58;70.58;98944.72;4971471;28;20467;-84
2023/04/11 00:46:05;;;;;;;8.18;2.83;;;;;;;11.55;70.68;98942.31;4971012;28;20055;-84
2023/04/11 00:48:31;;;;;;;4.93;2.40;;;;;;;11.54;70.83;98943.28;4953948;28;20595;-84
2023/04/11 00:50:58;;;;;;;3.20;2.28;;;;;;;11.53;70.82;98952.16;4971345;28;20069;-84
2023/04/11 00:53:25;;;;;;;8.38;3.17;;;;;;;11.52;70.92;98955.75;4971469;28;20051;-84
2023/04/11 00:55:51;;;;;;;5.68;2.85;;;;;;;11.53;71.04;98946.03;4970779;28;20058;-83
2023/04/11 00:58:19;;;;;;;7.05;2.92;;;;;;;11.54;70.98;98938.00;4970914;28;20073;-84
2023/04/11 01:00:48;;;;;;;4.82;2.75;;;;;;;11.55;71.03;98929.13;4971225;28;20053;-84
2023/04/11 01:03:17;;;;;;;6.18;3.20;;;;;;;11.56;71.28;98925.53;4970337;28;20086;-84
2023/04/11 01:05:47;;;;;;;6.85;2.60;;;;;;;11.58;71.32;98918.38;4970649;28;20510;-84
2023/04/11 01:08:15;;;;;;;6.95;2.75;;;;;;;11.62;71.18;98921.63;4953856;28;20070;-84
2023/04/11 01:10:54;;;;;;;8.25;2.85;;;;;;;11.64;71.06;98921.50;4971146;28;20063;-85
2023/04/11 01:14:46;;;;;;;;;;;;;;;;;;;;;
2023/04/11 01:18:38;;;;;;;;;;;;;;;;;;;;;
2023/04/11 01:22:24;;;;;;;;;;;;;;;;;;;;;
2023/04/11 01:32:51;;;;;;;;;;;;;;;;;;;;;
2023/04/11 01:35:39;;;;;;;4.78;1.50;;;;;;;10.72;68.39;98967.63;4942691;28;20121;-84
2023/04/11 01:38:21;;;;;;;;;;;;;;;;;;;;;
2023/04/11 01:41:22;;;;;;;6.15;1.67;;;;;;;10.51;69.69;98968.97;4914320;29;20064;-85
2023/04/11 01:44:55;;;;;;;;;;;;;;;;;;;;;
2023/04/11 01:48:08;;;;;;;;;;;;;;;;;;;;;
2023/04/11 01:55:15;;;;;;;;;;;;;;;;;;;;;
2023/04/11 02:05:54;;;;;;;6.82;1.73;;;;;;;10.29;70.84;98952.03;5327505;23;20049;-89
2023/04/11 02:08:21;;;;;;;10.30;2.10;;;;;;;10.28;70.80;98949.53;5031527;28;20060;-88
2023/04/11 02:10:47;;;;;;;8.85;2.58;;;;;;;10.25;70.93;98950.56;5033236;28;20060;-87
2023/04/11 02:13:14;;;;;;;7.40;2.25;;;;;;;10.24;71.13;98946.25;5015471;28;20053;-88
2023/04/11 02:15:40;;;;;;;9.63;2.63;;;;;;;10.23;71.20;98947.19;5032373;28;20132;-88
2023/04/11 02:18:08;;;;;;;7.68;2.53;;;;;;;10.24;71.43;98946.25;5015222;28;20056;-87
2023/04/11 02:20:39;;;;;;;12.23;2.63;;;;;;;10.23;71.51;98948.97;5033080;28;20145;-88
2023/04/11 02:23:06;;;;;;;11.20;2.78;;;;;;;10.23;71.67;98947.19;5032938;28;20057;-89
2023/04/11 02:25:33;;;;;;;13.43;2.97;;;;;;;10.21;71.74;98951.72;5032551;28;20056;-90
2023/04/11 02:27:59;;;;;;;12.18;2.80;;;;;;;10.22;72.06;98960.44;5032509;28;20058;-90
2023/04/11 02:30:26;;;;;;;12.13;3.58;;;;;;;10.22;71.87;98963.94;5014908;28;20062;-90
2023/04/11 02:32:52;;;;;;;8.65;2.55;;;;;;;10.21;71.95;98956.16;5032738;28;20068;-91
2023/04/11 02:35:19;;;;;;;14.93;3.42;;;;;;;10.22;72.01;98953.41;5032285;28;20053;-89
2023/04/11 02:37:45;;;;;;;14.45;3.60;;;;;;;10.21;72.08;98956.97;5014572;28;20063;-89
2023/04/11 02:40:12;;;;;;;17.63;4.90;;;;;;;10.21;72.18;98951.72;5032426;28;20395;-86
2023/04/11 02:42:41;;;;;;;15.32;3.50;;;;;;;10.22;72.46;98950.78;5032236;28;20059;-88
2023/04/11 02:45:09;;;;;;;13.40;4.05;;;;;;;10.23;72.53;98954.22;5031910;28;20529;-87
2023/04/11 02:47:35;;;;;;;14.05;3.58;;;;;;;10.26;72.64;98969.81;5030904;28;20144;-91
2023/04/11 02:50:02;;;;;;;15.15;4.50;;;;;;;10.27;72.79;98956.56;5032518;28;20099;-91
2023/04/11 02:52:28;;;;;;;19.17;4.38;;;;;;;10.30;72.96;98966.88;5032410;28;20057;-90
2023/04/11 02:54:55;;;;;;;14.75;4.90;;;;;;;10.33;72.95;98957.09;5030653;28;20061;-85
2023/04/11 02:57:21;;;;;;;17.65;4.85;;;;;;;10.35;72.98;98963.09;5031831;28;20058;-86
2023/04/11 02:59:47;;;;;;;12.23;3.67;;;;;;;10.38;73.06;98952.34;5032533;28;20532;-89
2023/04/11 03:02:14;;;;;;;19.50;4.93;;;;;;;10.41;73.11;98952.13;5014684;28;20046;-90
2023/04/11 03:04:40;;;;;;;17.90;4.40;;;;;;;10.45;73.07;98963.31;5032371;28;20420;-89
2023/04/11 03:07:07;;;;;;;17.02;4.05;;;;;;;10.47;73.04;98951.72;5031334;28;20063;-91
2023/04/11 03:09:34;;;;;;;20.80;4.63;;;;;;;10.50;72.82;98956.78;5014753;28;20139;-89
2023/04/11 03:12:00;;;;;;;23.75;5.65;;;;;;;10.52;72.71;98961.94;5032285;28;20057;-91
2023/04/11 03:14:27;;;;;;;22.50;4.90;;;;;;;10.53;72.39;98961.84;5032189;28;20049;-90
2023/04/11 03:16:53;;;;;;;19.38;4.22;;;;;;;10.55;72.23;98967.81;5031206;28;20092;-91
2023/04/11 03:19:20;;;;;;;15.25;4.57;;;;;;;10.57;72.25;98959.00;5014335;28;20057;-87
2023/04/11 03:21:46;;;;;;;15.57;4.32;;;;;;;10.57;72.22;98954.56;5031856;28;20103;-88
2023/04/11 03:24:13;;;;;;;18.02;4.32;;;;;;;10.60;72.06;98966.66;5031973;28;20054;-90
2023/04/11 03:26:39;;;;;;;17.38;4.00;;;;;;;10.60;71.95;98964.03;5030993;28;20497;-90
2023/04/11 03:29:06;;;;;;;16.85;4.55;;;;;;;10.62;72.03;98956.88;5031737;28;20100;-91
2023/04/11 03:31:32;;;;;;;19.27;5.28;;;;;;;10.64;71.95;98952.34;5031920;28;20049;-92
2023/04/11 03:33:59;;;;;;;16.77;4.00;;;;;;;10.64;72.00;98950.56;5014286;28;20107;-90
2023/04/11 03:36:25;;;;;;;21.55;4.70;;;;;;;10.65;71.96;98946.97;5013756;28;20064;-91
2023/04/11 03:38:52;;;;;;;15.30;3.97;;;;;;;10.65;71.72;98956.69;5031160;28;20057;-92
2023/04/11 03:41:19;;;;;;;19.45;4.32;;;;;;;10.64;71.30;98952.34;5031587;28;20166;-92
2023/04/11 03:43:45;;;;;;;19.50;4.00;;;;;;;10.63;71.25;98961.19;5030367;28;20430;-90
2023/04/11 03:46:12;;;;;;;25.77;4.93;;;;;;;10.62;71.26;98952.44;5013855;28;20058;-91
2023/04/11 03:48:38;;;;;;;20.45;3.88;;;;;;;10.62;71.70;98956.88;5031113;28;20195;-90
2023/04/11 03:51:05;;;;;;;16.20;4.28;;;;;;;10.61;71.29;98960.47;5031552;28;20061;-92
2023/04/11 03:53:32;;;;;;;12.48;3.72;;;;;;;10.60;71.08;98966.66;5013268;28;20055;-88
2023/04/11 03:55:58;;;;;;;14.48;4.05;;;;;;;10.58;71.01;98974.66;5013453;28;20490;-91
2023/04/11 03:58:25;;;;;;;13.93;3.72;;;;;;;10.58;71.06;98968.56;5031325;28;20050;-92
2023/04/11 04:00:51;;;;;;;17.92;3.85;;;;;;;10.56;70.91;98973.94;5031604;28;20164;-92
2023/04/11 04:03:18;;;;;;;16.27;3.55;;;;;;;10.57;71.49;98999.31;5031636;28;20140;-92
2023/04/11 04:05:44;;;;;;;10.13;2.25;;;;;;;10.59;70.92;98999.19;5013428;28;20061;-90
2023/04/11 04:08:12;;;;;;;6.68;2.00;;;;;;;10.57;70.16;98986.13;5030735;28;20403;-91
2023/04/11 04:10:38;;;;;;;8.57;2.05;;;;;;;10.56;69.78;99000.25;5031545;28;20062;-92
2023/04/11 04:13:05;;;;;;;6.88;1.70;;;;;;;10.52;69.91;98983.84;5031131;28;20064;-89
2023/04/11 04:18:52;;;;;;;6.35;1.70;;;;;;;10.41;67.48;98991.59;4998684;23;20058;-77
2023/04/11 04:25:42;;;;;;;12.32;2.20;;;;;;;10.36;69.32;99001.59;4990631;28;20050;-76
2023/04/11 04:28:16;;;;;;;7.13;1.85;;;;;;;10.32;69.54;99011.47;4957727;28;20062;-76
2023/04/11 04:30:48;;;;;;;2.63;1.00;;;;;;;10.26;68.75;99002.22;4973972;28;20086;-76
2023/04/11 04:33:17;;;;;;;3.57;0.93;;;;;;;10.23;69.40;98997.16;4991424;28;20070;-76
2023/04/11 04:35:44;;;;;;;1.88;1.05;;;;;;;10.18;69.32;98999.28;4989039;28;20379;-76
2023/04/11 04:38:16;;;;;;;5.07;1.48;;;;;;;10.13;69.37;99004.00;4990942;28;20480;-76
2023/04/11 04:40:43;;;;;;;5.25;1.27;;;;;;;10.04;69.01;99008.94;4991239;28;20050;-75
2023/04/11 04:43:17;;;;;;;7.57;1.20;;;;;;;9.98;69.10;99006.72;4991458;28;20062;-76
2023/04/11 04:45:44;;;;;;;6.05;1.60;;;;;;;9.92;69.51;99007.13;4989556;28;20058;-76
2023/04/11 04:48:16;;;;;;;6.15;1.40;;;;;;;9.86;69.16;99012.78;4990998;28;20051;-76
2023/04/11 04:50:44;;;;;;;4.13;1.27;;;;;;;9.81;70.23;99013.09;4973590;28;20054;-75
2023/04/11 04:53:11;;;;;;;8.43;2.17;;;;;;;9.77;70.24;99020.31;4991295;28;20086;-75
2023/04/11 04:55:37;;;;;;;6.32;1.67;;;;;;;9.72;70.36;99022.41;4990630;28;20472;-75
2023/04/11 04:58:04;;;;;;;8.13;1.73;;;;;;;9.69;70.33;99013.91;4991000;28;20058;-76
2023/04/11 05:00:32;;;;;;;4.57;1.52;;;;;;;9.67;70.33;99015.75;4990841;28;20097;-76
2023/04/11 05:02:58;;;;;;;5.47;1.50;;;;;;;9.62;70.60;99019.56;4990986;28;20057;-76
2023/04/11 05:05:25;;;;;;;5.53;1.70;;;;;;;9.61;70.52;99019.66;4994116;28;20797;-75
2023/04/11 05:07:52;;;;;;;6.75;2.00;;;;;;;9.57;70.56;99013.75;4993426;28;20176;-78
2023/04/11 05:10:19;;;;;;;6.93;1.60;;;;;;;9.55;70.70;99020.91;4994858;28;20054;-78
2023/04/11 05:12:45;;;;;;;8.93;2.22;;;;;;;9.52;70.85;99021.09;4993674;28;20066;-78
2023/04/11 05:15:13;;;;;;;8.65;1.98;;;;;;;9.49;70.98;99026.53;4994264;28;20054;-78
2023/04/11 05:17:41;;;;;;;6.80;2.00;;;;;;;9.46;71.19;99027.56;4994326;28;20502;-78
2023/04/11 05:20:08;;;;;;;7.43;1.88;;;;;;;9.45;70.91;99027.66;4994751;28;20061;-78
2023/04/11 05:22:36;;;;;;;8.80;2.45;;;;;;;9.40;71.32;99033.22;4994666;28;20054;-77
2023/04/11 05:25:04;;;;;;;16.33;2.50;;;;;;;9.39;71.30;99032.38;4994289;28;20097;-77
2023/04/11 05:27:31;;;;;;;8.30;1.58;;;;;;;9.38;71.22;99038.56;4994356;28;20082;-77
2023/04/11 05:29:58;;;;;;;10.55;1.45;;;;;;;9.39;71.53;99029.75;4994379;28;20068;-77
2023/04/11 05:32:24;;;;;;;7.93;1.70;;;;;;;9.38;71.63;99040.34;4994470;28;20055;-78
2023/04/11 05:34:55;;;;;;;7.68;1.70;;;;;;;9.37;70.97;99052.66;4994313;28;20137;-77
2023/04/11 05:37:24;;;;;;;;;;;;;;;9.39;69.59;99050.75;4994712;28;20058;-78
2023/04/11 05:39:51;;;;;;;13.52;2.50;;;;;;;9.43;71.35;99043.56;4994175;28;20371;-77
2023/04/11 05:42:18;;;;;;;10.43;2.58;;;;;;;9.42;71.79;99057.59;4994275;28;20576;-78
2023/04/11 05:44:44;;;;;;;6.35;2.05;;;;;;;9.43;72.06;99061.94;4988768;28;20061;-77
2023/04/11 05:47:11;;;;;;;11.52;2.30;;;;;;;9.43;72.20;99075.06;4992471;28;20157;-78
2023/04/11 05:49:38;;;;;;;9.65;2.03;;;;;;;9.43;72.40;99074.22;4993843;28;20088;-77
2023/04/11 05:52:04;;;;;;;12.75;2.35;;;;;;;9.44;72.64;99075.91;4993218;28;20141;-78
2023/04/11 05:54:33;;;;;;;14.43;2.65;;;;;;;9.46;72.93;99082.75;5009030;28;20050;-78
2023/04/11 05:57:03;;;;;;;10.57;2.40;;;;;;;9.49;72.89;99086.94;4993317;28;20412;-78
2023/04/11 05:59:30;;;;;;;14.43;3.17;;;;;;;9.55;72.81;99101.50;4993749;28;20422;-78
2023/04/11 06:01:57;;;;;;;15.85;2.13;;;;;;;9.55;72.55;99091.84;4993988;28;20066;-78
2023/04/11 06:04:25;;;;;;;11.02;2.40;;;;;;;9.58;72.36;99111.81;4992788;28;20069;-78
2023/04/11 06:06:52;;;;;;;8.77;2.42;;;;;;;9.59;72.35;99095.09;4993504;28;20054;-79
2023/04/11 06:09:19;;;;;;;17.33;3.35;;;;;;;9.58;72.36;99107.41;4992520;28;20050;-78
2023/04/11 06:11:46;;;;;;;15.38;2.88;;;;;;;9.60;72.24;99100.25;4993758;28;20518;-78
2023/04/11 06:14:13;;;;;;;14.30;2.28;;;;;;;9.62;72.40;99095.75;4994035;28;20050;-79
2023/04/11 06:16:40;;;;;;;11.82;2.30;;;;;;;9.64;72.72;99111.41;4992378;28;20134;-78
2023/04/11 06:19:06;;;;;;;6.53;2.17;;;;;;;9.69;73.06;99106.72;4993876;28;20088;-78
2023/04/11 06:21:34;;;;;;;11.77;2.67;;;;;;;9.74;73.12;99104.66;4993682;28;20105;-78
2023/04/11 06:24:04;;;;;;;12.70;2.75;;;;;;;9.80;73.07;99099.94;4993494;28;20423;-78
2023/04/11 06:26:31;;;;;;;7.00;2.45;;;;;;;9.88;73.19;99097.66;4992035;28;20076;-78
2023/04/11 06:29:04;;;;;;;10.18;2.85;;;;;;;9.94;72.89;99112.19;4993485;28;20513;-78
2023/04/11 06:31:32;;;;;;;11.95;2.42;;;;;;;9.99;72.65;99121.44;4993668;28;20112;-78
2023/04/11 06:34:00;;;;;;;16.58;2.97;;;;;;;10.04;72.20;99108.00;4993533;28;20063;-79
2023/04/11 06:36:27;;;;;;;10.20;2.30;;;;;;;10.06;71.69;99110.53;4992952;28;20463;-78
2023/04/11 06:38:53;;;;;;;13.55;2.40;;;;;;;10.08;71.82;99108.63;4991785;28;20058;-79
2023/04/11 06:41:20;;;;;;;9.88;2.50;;;;;;;10.08;71.75;99122.63;4993460;28;20128;-78
2023/04/11 06:43:46;;;;;;;13.23;2.90;;;;;;;10.11;71.95;99134.75;4993366;28;20070;-78
2023/04/11 06:46:13;;;;;;;10.23;2.60;;;;;;;10.13;72.32;99119.72;4986911;28;20138;-78
2023/04/11 06:48:39;;;;;;;7.65;2.08;;;;;;;10.14;72.23;99135.38;4989242;28;20450;-78
2023/04/11 06:51:07;;;;;;;16.85;2.58;;;;;;;10.16;72.25;99135.28;4992392;28;20093;-78
2023/04/11 06:53:34;;;;;;;13.70;2.83;;;;;;;10.19;72.45;99137.72;4992561;28;20125;-79
2023/04/11 06:56:01;;;;;;;7.97;2.10;;;;;;;10.23;72.22;99138.34;4992394;28;20133;-78
2023/04/11 06:58:27;;;;;;;12.27;2.45;;;;;;;10.25;72.06;99136.47;4992190;28;20120;-79
2023/04/11 07:00:54;;;;;;;6.55;1.83;;;;;;;10.28;71.96;99142.38;4992480;28;20100;-79
2023/04/11 07:03:23;;;;;;;10.10;2.30;;;;;;;10.32;72.28;99142.19;4992568;28;20055;-77
2023/04/11 07:05:51;;;;;;;11.20;2.03;;;;;;;10.33;71.96;99142.09;4992588;28;20089;-78
2023/04/11 07:08:17;;;;;;;9.27;2.83;;;;;;;10.36;72.07;99155.00;4992369;28;20090;-79
2023/04/11 07:10:44;;;;;;;9.57;2.50;;;;;;;10.37;71.59;99156.72;4991732;28;20058;-79
2023/04/11 07:13:10;;;;;;;8.07;1.88;;;;;;;10.40;71.61;99161.75;4992684;28;20092;-78
2023/04/11 07:15:37;;;;;;;6.65;1.98;;;;;;;10.41;71.42;99157.34;4992228;28;20085;-79
2023/04/11 07:18:04;;;;;;;7.78;1.90;;;;;;;10.44;71.57;99167.72;4992239;28;20594;-78
2023/04/11 07:20:33;;;;;;;13.95;2.90;;;;;;;10.46;71.31;99165.81;4996096;28;20081;-78
2023/04/11 07:23:01;;;;;;;10.55;2.38;;;;;;;10.50;71.30;99166.47;4999633;28;20088;-78
2023/04/11 07:25:32;;;;;;;9.18;1.95;;;;;;;10.54;71.63;99178.44;4995549;28;20062;-78
2023/04/11 07:27:59;;;;;;;11.88;2.13;;;;;;;10.60;71.68;99174.56;4992035;28;20121;-78
2023/04/11 07:30:27;;;;;;;10.90;2.95;;;;;;;10.65;71.68;99175.13;4992250;28;20503;-78
2023/04/11 07:32:53;;;;;;;6.35;1.92;;;;;;;10.73;71.93;99177.25;4992163;28;20058;-79
2023/04/11 07:35:20;;;;;;;8.65;2.08;;;;;;;10.81;71.82;99175.75;4990688;28;20054;-78
2023/04/11 07:37:47;;;;;;;9.73;2.08;;;;;;;10.90;71.64;99168.19;4992105;28;20054;-78
2023/04/11 07:40:14;;;;;;;10.32;2.53;;;;;;;10.96;70.91;99173.06;4991278;28;20056;-78
2023/04/11 07:42:41;;;;;;;6.65;1.65;;;;;;;11.01;70.16;99176.22;4992156;28;20070;-78
2023/04/11 07:45:08;;;;;;;8.20;1.92;;;;;;;11.02;69.21;99177.03;4974646;28;20141;-78
2023/04/11 07:47:35;;;;;;;6.88;1.80;;;;;;;11.03;68.57;99190.09;4991707;28;20216;-78
2023/04/11 07:50:02;;;;;;;9.50;2.10;;;;;;;11.01;67.22;99176.22;4992297;28;20069;-78
2023/04/11 07:52:29;;;;;;;7.20;1.77;;;;;;;11.00;67.47;99187.69;4992087;28;20061;-78
2023/04/11 07:54:56;;;;;;;4.45;1.50;;;;;;;10.97;67.71;99193.16;4974345;28;20136;-77
2023/04/11 07:57:22;;;;;;;5.57;1.63;;;;;;;10.94;67.53;99202.13;4974361;28;20051;-79
2023/04/11 07:59:49;;;;;;;5.85;1.38;;;;;;;10.96;68.30;99199.38;4990467;28;20062;-78
2023/04/11 08:02:16;;;;;;;8.18;2.10;;;;;;;10.98;68.04;99208.03;4991559;28;20077;-78
2023/04/11 08:04:42;;;;;;;5.80;1.77;;;;;;;11.02;67.73;99214.75;4991606;28;20495;-76
2023/04/11 08:07:10;;;;;;;6.32;1.92;;;;;;;11.10;67.83;99214.22;4974426;28;20093;-78
2023/04/11 08:09:37;;;;;;;8.10;1.58;;;;;;;11.17;68.44;99209.38;4991668;28;20062;-78
2023/04/11 08:12:03;;;;;;;9.40;2.05;;;;;;;11.25;68.24;99225.50;4992253;28;20107;-76
2023/04/11 08:14:30;;;;;;;6.93;1.80;;;;;;;11.32;67.45;99225.94;4991575;28;20109;-78
2023/04/11 08:16:57;;;;;;;7.43;2.00;;;;;;;11.37;66.91;99229.13;4991036;28;20745;-79
2023/04/11 08:19:24;;;;;;;9.20;1.77;;;;;;;11.46;67.53;99238.16;4991825;28;20595;-79
2023/04/11 08:21:51;;;;;;;4.18;1.67;;;;;;;11.56;67.68;99241.00;4991588;28;20499;-79
2023/04/11 08:24:19;;;;;;;5.10;1.40;;;;;;;11.62;66.79;99242.38;4977253;28;20053;-78
2023/04/11 08:26:45;;;;;;;6.10;1.40;;;;;;;11.67;65.76;99235.00;4991338;28;20080;-78
2023/04/11 08:29:12;;;;;;;8.07;1.88;;;;;;;11.71;65.74;99253.13;4990290;28;20494;-79
2023/04/11 08:31:45;;;;;;;7.60;2.05;;;;;;;11.73;63.34;99253.00;4990956;28;20054;-79
2023/04/11 08:34:11;;;;;;;5.03;1.48;;;;;;;11.76;65.50;99249.31;4989878;28;20058;-78
2023/04/11 08:36:38;;;;;;;4.82;1.65;;;;;;;11.75;64.92;99253.75;4990697;28;20057;-78
2023/04/11 08:39:05;;;;;;;5.68;1.75;;;;;;;11.76;64.87;99265.97;4990548;28;20406;-79
2023/04/11 08:41:32;;;;;;;4.82;1.45;;;;;;;11.73;64.04;99264.41;4990489;28;20062;-79
2023/04/11 08:43:59;;;;;;;5.00;1.48;;;;;;;11.75;64.75;99260.81;4991196;28;20068;-78
2023/04/11 08:46:26;;;;;;;6.55;1.42;;;;;;;11.78;64.84;99263.25;4989725;28;20055;-78
2023/04/11 08:48:53;;;;;;;8.48;1.77;;;;;;;11.79;64.32;99251.75;4991848;28;20089;-78
2023/04/11 08:51:22;;;;;;;11.80;1.80;;;;;;;11.82;64.74;99260.28;4989824;28;20454;-78
2023/04/11 08:53:56;;;;;;;5.20;1.40;;;;;;;11.89;65.09;99257.22;4991133;28;20050;-78
2023/04/11 08:56:23;;;;;;;7.28;1.70;;;;;;;11.98;65.82;99260.06;4990839;28;20067;-78
2023/04/11 08:58:50;;;;;;;6.68;1.52;;;;;;;12.08;65.32;99281.34;4991130;28;20093;-78
2023/04/11 09:01:33;;;;;;;4.13;1.48;;;;;;;12.14;61.55;99274.81;4991184;28;20054;-78
2023/04/11 09:04:03;;;;;;;6.28;1.52;;;;;;;12.25;65.06;99268.75;4991411;28;20121;-78
2023/04/11 09:06:32;;;;;;;4.63;1.42;;;;;;;12.32;64.62;99269.16;4991021;28;20066;-77
2023/04/11 09:09:00;;;;;;;8.73;1.67;;;;;;;12.38;63.12;99277.47;4990736;28;20491;-78
2023/04/11 09:11:27;;;;;;;5.57;1.23;;;;;;;12.43;62.18;99278.94;4991236;28;20065;-78
2023/04/11 09:14:07;;;;;;;8.55;1.67;;;;;;;12.40;57.27;99285.28;4991151;28;20064;-79
2023/04/11 09:16:35;;;;;;;7.93;1.60;;;;;;;12.46;61.94;99294.56;4988988;28;20058;-78
2023/04/11 09:19:02;;;;;;;5.22;1.50;;;;;;;12.47;62.72;99280.41;4990767;28;20531;-78
2023/04/11 09:21:29;;;;;;;4.90;1.20;;;;;;;12.51;63.64;99277.44;4990617;28;20082;-78
2023/04/11 09:24:15;;;;;;;4.13;1.17;;;;;;;12.54;57.19;99273.72;4990966;28;20066;-78
2023/04/11 09:26:42;;;;;;;6.78;1.55;;;;;;;12.67;62.40;99270.19;4990327;28;20146;-79
2023/04/11 09:29:09;;;;;;;5.25;1.25;;;;;;;12.72;62.44;99279.47;5005817;28;20129;-78
2023/04/11 09:31:44;;;;;;;6.65;1.60;;;;;;;12.76;59.07;99264.22;4990739;28;20062;-78
2023/04/11 09:34:12;;;;;;;5.78;1.45;;;;;;;12.82;61.90;99261.09;4990791;28;20054;-78
2023/04/11 09:36:39;;;;;;;6.50;1.05;;;;;;;12.88;62.35;99270.38;4990250;28;20085;-78
2023/04/11 09:39:19;;;;;;;4.93;1.77;;;;;;;12.89;59.67;99264.97;4990988;28;20058;-78
2023/04/11 09:41:46;;;;;;;9.00;1.95;;;;;;;12.98;61.93;99268.72;4990579;28;20492;-78
2023/04/11 09:44:12;;;;;;;6.57;1.35;;;;;;;13.06;60.19;99268.16;4990504;28;20062;-79
2023/04/11 09:46:58;;;;;;;3.50;1.40;;;;;;;13.14;58.63;99257.84;4990151;28;20054;-79
2023/04/11 09:49:25;;;;;;;4.95;1.30;;;;;;;13.29;61.46;99270.84;4989529;28;20089;-79
2023/04/11 09:51:53;;;;;;;4.28;1.42;;;;;;;13.38;60.90;99251.63;4992563;28;20097;-79
2023/04/11 09:54:21;;;;;;;5.95;1.17;;;;;;;13.45;60.99;99269.69;4994153;28;20585;-79
2023/04/11 09:56:48;;;;;;;11.00;1.90;;;;;;;13.51;61.00;99263.94;4993702;28;20058;-78
2023/04/11 09:59:15;;;;;;;6.53;1.80;;;;;;;13.53;59.39;99257.56;4994639;28;20054;-78
2023/04/11 10:01:42;;;;;;;8.05;1.60;;;;;;;13.60;60.11;99257.13;4994152;28;20108;-79
2023/04/11 10:04:09;;;;;;;5.03;1.58;;;;;;;13.69;60.79;99264.34;4992858;28;20478;-76
2023/04/11 10:07:04;;;;;;;8.30;1.33;;;;;;;13.78;56.21;99266.25;4993369;28;20458;-76
2023/04/11 10:09:32;;;;;;;6.78;1.52;;;;;;;13.94;59.76;99262.38;4994203;28;20046;-76
2023/04/11 10:11:58;;;;;;;9.93;2.20;;;;;;;14.05;60.08;99266.81;4993934;28;20050;-76
2023/04/11 10:14:37;;;;;;;5.72;1.58;;;;;;;14.06;52.91;99252.66;4994130;28;20054;-79
2023/04/11 10:17:18;;;;;;;5.93;1.30;;;;;;;14.13;53.19;99277.63;5052918;23;20070;-85
2023/04/11 10:19:56;;;;;;;6.78;1.73;;;;;;;14.24;56.60;99265.38;4972769;28;20066;-85
2023/04/11 10:22:49;;;;;;;6.72;1.50;;;;;;;14.32;54.45;99265.59;4971732;28;20399;-85
2023/04/11 10:25:20;;;;;;;8.95;1.95;;;;;;;14.44;55.31;99263.75;4964933;28;20069;-83
2023/04/11 10:27:49;;;;;;;7.82;1.92;;;;;;;14.56;57.28;99275.13;4972654;28;20067;-84
2023/04/11 10:30:15;;;;;;;3.83;1.45;;;;;;;14.67;57.82;99267.16;4971636;28;20542;-83
2023/04/11 10:33:08;;;;;;;5.20;1.58;;;;;;;14.72;50.31;99275.56;4972829;28;20061;-84
2023/04/11 10:35:54;;;;;;;9.93;1.70;;;;;;;14.84;56.81;99257.03;4971389;28;20407;-84
2023/04/11 10:38:38;;;;;;;5.32;1.17;;;;;;;14.80;46.39;99282.09;4972408;28;20503;-84
2023/04/11 10:41:32;;;;;;;5.13;1.20;;;;;;;14.77;49.67;99277.03;4955538;28;20058;-84
2023/04/11 10:44:19;;;;;;;6.47;1.58;;;;;;;14.68;48.25;99289.19;4972786;28;20485;-84
2023/04/11 10:47:16;;;;;;;5.82;1.55;;;;;;;14.69;48.91;99290.88;4971025;28;20059;-83
2023/04/11 10:49:44;;;;;;;4.15;1.38;;;;;;;14.77;55.31;99287.63;4971365;28;20053;-83
2023/04/11 10:52:17;;;;;;;8.07;1.80;;;;;;;14.79;52.06;99290.97;4972487;28;20066;-83
2023/04/11 10:54:45;;;;;;;4.97;1.20;;;;;;;14.91;53.96;99295.28;4972469;28;20055;-84
2023/04/11 10:57:12;;;;;;;5.00;1.55;;;;;;;15.03;54.06;99281.97;4954584;28;20084;-83
2023/04/11 10:59:55;;;;;;;4.40;1.50;;;;;;;15.17;53.17;99286.13;4972374;28;20065;-84
2023/04/11 11:02:25;;;;;;;5.40;1.40;;;;;;;15.32;52.63;99279.50;4970576;28;20165;-83
2023/04/11 11:04:52;;;;;;;7.95;1.70;;;;;;;15.51;54.19;99272.63;4972055;28;20101;-84
2023/04/11 11:07:19;;;;;;;7.05;1.40;;;;;;;15.67;54.45;99285.44;4971746;28;20093;-84
2023/04/11 11:09:49;;;;;;;3.97;1.40;;;;;;;15.85;52.73;99287.47;4954919;28;20054;-84
2023/04/11 11:12:16;;;;;;;6.70;1.90;;;;;;;16.06;53.07;99284.78;4971985;28;20061;-84
2023/04/11 11:14:45;;;;;;;7.03;1.67;;;;;;;16.47;55.83;99282.06;4971866;28;20607;-84
2023/04/11 11:17:14;;;;;;;12.38;2.03;;;;;;;16.96;56.04;99305.19;4971314;28;20062;-84
2023/04/11 11:19:45;;;;;;;7.95;1.40;;;;;;;17.50;50.95;99277.28;4970748;28;20141;-84
2023/04/11 11:22:25;;;;;;;7.25;1.40;;;;;;;17.94;48.71;99274.88;4972167;28;20573;-84
2023/04/11 11:24:51;;;;;;;4.97;1.20;;;;;;;18.25;50.15;99292.41;4970417;28;20438;-84
2023/04/11 11:27:22;;;;;;;4.50;1.35;;;;;;;18.35;46.08;99298.53;4971542;28;20055;-84
2023/04/11 11:29:50;;;;;;;4.82;1.50;;;;;;;18.38;48.44;99297.38;4954667;28;20058;-84
2023/04/11 11:32:25;;;;;;;3.35;1.13;;;;;;;18.30;43.18;99307.94;4954687;28;20117;-85
2023/04/11 11:34:52;;;;;;;6.85;1.40;;;;;;;18.25;47.15;99297.75;4970291;28;20498;-85
2023/04/11 11:37:20;;;;;;;2.70;1.10;;;;;;;18.17;47.74;99314.44;4971144;28;20166;-84
2023/04/11 11:39:51;;;;;;;4.60;1.30;;;;;;;18.17;48.38;99308.31;4965360;28;20139;-83
2023/04/11 11:42:18;;;;;;;5.18;1.15;;;;;;;18.29;50.70;99309.78;4970432;28;20060;-84
2023/04/11 11:44:45;;;;;;;4.72;1.48;;;;;;;18.57;50.61;99312.41;4962190;28;20061;-84
2023/04/11 11:47:15;;;;;;;5.13;1.40;;;;;;;18.95;50.47;99312.25;4978681;23;20054;-89
2023/04/11 11:49:54;;;;;;;5.10;1.58;;;;;;;19.22;44.34;99315.03;5031159;28;20144;-90
2023/04/11 11:52:33;;;;;;;4.88;1.10;;;;;;;19.38;43.60;99309.81;5031483;28;20049;-90
2023/04/11 11:55:04;;;;;;;6.85;1.42;;;;;;;19.49;45.70;99310.53;5031398;28;20103;-91
2023/04/11 11:57:44;;;;;;;3.53;0.98;;;;;;;19.36;41.59;99305.63;5010173;28;20050;-89
2023/04/11 12:00:11;;;;;;;5.85;1.30;;;;;;;19.25;44.98;99315.53;5011671;28;20156;-84
2023/04/11 12:02:40;;;;;;;4.53;1.63;;;;;;;19.11;43.65;99316.09;5018787;28;20119;-90
2023/04/11 12:05:10;;;;;;;6.10;1.40;;;;;;;19.01;43.88;99311.66;5028532;28;20057;-89
2023/04/11 12:07:37;;;;;;;3.53;1.25;;;;;;;19.01;45.44;99313.47;5029340;28;20068;-94
2023/04/11 12:10:10;;;;;;;6.28;1.35;;;;;;;19.09;46.96;99324.25;5031080;28;20053;-92
2023/04/11 12:12:39;;;;;;;2.35;1.00;;;;;;;19.21;44.21;99334.69;5013592;28;20061;-90
2023/04/11 12:15:11;;;;;;;6.70;1.63;;;;;;;19.31;38.87;99330.09;5030086;28;20406;-90
2023/04/11 12:17:38;;;;;;;3.47;1.23;;;;;;;19.50;45.86;99314.88;5030633;28;20057;-89
2023/04/11 12:20:06;;;;;;;4.57;1.20;;;;;;;19.71;45.32;99327.03;5030791;28;20668;-91
2023/04/11 12:22:34;;;;;;;2.95;1.08;;;;;;;19.97;46.39;99324.34;5031052;28;20060;-90
2023/04/11 12:25:08;;;;;;;4.47;1.20;;;;;;;20.27;37.13;99332.00;5030406;28;20418;-90
2023/04/11 12:27:36;;;;;;;5.93;1.88;;;;;;;20.69;44.40;99340.97;5030367;28;20053;-90